Tremont, Pennsylvania
Current Conditions -  °F | °C
As of 11:58 AM on Saturday 25 Oct 2014 (Local Time) from KMUI Reporting Station
Clear Clear  
Wind Chill: 64°   Ceiling: Unl
Heat Index: 64°   Visibility: 10mi
Dew Point: 44°   Wind: 8mph
Humidity: 47%   Direction: 290°WNW
Pressure: 29.85"   Gusts: NA
Location:  40.63°N, 76.39°W
Report Text: KMUI 251558Z AUTO 29007KT 10SM CLR 18/06 A2985 RMK AO2 SLP110 T01790064 $
Loading
Personal Weather Stations






























Interactive Weather Map
Tropical Storm Tracking
New forecast layout! Learn more

10-Day Weather Forecast

Advertisements
Track Severe Weather on mobile